Airfield :







YOU CAN JOIN US ON...

 
LOGIN :

Register | Disclaimer

   EN    FR    IT 

 









Legend :    VFR   Marginal VFR   IFR   Intensive IFR   Very Intensive IFR
Visi :
Ceiling :
>= 8 km
>= 3000ft
5 to 8 km
1000 to 3000 ft
1500m to 5 km
500 to 1000 ft
800 to 1500m
200 to 500 ft
< 800m
< 200 ft
Symbols :   Thunderstorms  Fog  Heavy snow  Heavy precipitations  Wind > 20 kt






- Airport Elevation : 988 ft


KFVE - Northern Aroostook Regional

CURRENT METAR :
  • 161853Z AUTO 14008KT 10SM CLR 12/01 A2994 RMK AO2 SLP141 T01220011 $

EXPIRED METARs :
  • 161753Z AUTO 14008KT 120V180 10SM CLR 12/01 A2997 RMK AO2 SLP151 T01220011 10128 20028 58023 $
  • 161653Z AUTO 14009KT 10SM CLR 12/02 A2998 RMK AO2 SLP158 T01170017 $

TAF KFVE
Valid from the 16 at 18:00 until the 17 at 18:00 UTC


161733Z 1618/1718 17007KT P6SM BKN200
FM171100 09010G18KT P6SM VCSH OVC040
FM171300 07015G30KT 5SM -RA OVC030
FM171500 07020G35KT 3SM -RA OVC016 WS020/06040KT



MET'MAP, your aeronautical weather chart ! - Copyright ORBIFLY December 2007 - Disclaimer

ORBIFLY MET'MAP TEAM :

Programming & Development : Alexandra Zaïnal
Concept & Development : Baudouin d'Aumeries
Co-Development & Prog : Marc-Olivier Méhu
Technical & hardware support : Manuel Goepfert

Contact : metmap@orbifly.com




SOURCES & CREDITS :

   NOAA